Página principal
METAR-TAF:

METAR-TAF

Aeroportos :

Aeroporto Internacional Norman Manley

Kingston, Jamaica

latitude: 17-56N, longitude: 076-47W, altura: 3 m

Observação actual do tempo

O boletim foi feito há 10 minutos, às 09:00 UTC
Vento 4 kt de oes-noroeste
Temperatura 27°C
Humidade 84%
Pressão 1014 hPa
Visibilidade 10 km ou mais
Poucas nuvensa uma altura de 2200 ft

METAR: MKJP 180900Z 29004KT 9999 FEW022 27/24 Q1014

Hora: 04:10 (09:10 UTC)

Previsão

O boletim foi feito há 3 horas e 55 minutos, às 05:15 UTC
Previsão válida de 18 às 06 UTC a 19 às 06 UTC
Vento 8 kt de es-sudeste
Visibilidade 10 km ou mais
Poucas nuvensa uma altura de 2200 ft
Tornando-se
de 18 às 12 UTC a 18 às 14 UTC
Vento 22 kt de sudeste
Tornando-se
de 19 às 02 UTC a 19 às 04 UTC
Vento 10 kt de sudeste

TAF: MKJP 180515Z 1806/1906 12008KT 9999 FEW022 BECMG 1812/1814 14022KT BECMG 1902/1904 13010KT

Observações e previsões do tempo de mais de 4000 aeroportos (mensagens METAR e TAF).

As estações disponíveis são os pontos amarelos e vermelhos sobre o mapa.

Mova o rato sobre o mapa para ver o nome da estação.

Depois clique no ponto para visualizar as observações e previsões meteorológicas.

Para alterar o mapa : clique nos botões verdes com uma cruz preta para aumentar o zoom; no botão verde com uma pitada de zoom; ou nas setas verdes para mapas adjacentes.


METAR-TAF: